Time;durP1;ratioP1;P1;durP2;ratioP2;P2;SDS_P1;SDS_P2;PMS_P1;PMS_P2;Temp;Humidity;BMP_temperature;BMP_pressure;BME280_temperature;BME280_humidity;BME280_pressure;Samples;Min_cycle;Max_cycle;Signal;HPM_P1;HPM_P2
2023/03/09 00:00:45;;;;;;;22.48;14.65;;;;;;;-146.25;97.51;52439.16;2073223;28;20124;-79
2023/03/09 00:01:53;;;;;;;22.30;14.80;;;;;;;-146.25;97.78;52422.94;2072532;28;35283;-78
2023/03/09 00:02:55;;;;;;;22.60;14.20;;;;;;;-146.25;97.63;52453.34;2072207;28;35428;-79
2023/03/09 00:03:59;;;;;;;23.80;14.55;;;;;;;-146.25;97.77;52433.06;2072610;28;31809;-79
2023/03/09 00:05:02;;;;;;;25.33;15.68;;;;;;;-146.25;98.06;52412.81;2071438;28;37429;-79
2023/03/09 00:06:04;;;;;;;24.50;15.60;;;;;;;-146.25;98.27;52406.72;2072460;28;20991;-79
2023/03/09 00:07:06;;;;;;;22.08;14.90;;;;;;;-146.25;98.61;52469.56;2072381;28;37639;-78
2023/03/09 00:08:08;;;;;;;24.42;15.60;;;;;;;-146.25;98.66;52445.25;2072285;28;28874;-76
2023/03/09 00:09:12;;;;;;;24.33;15.07;;;;;;;-146.25;98.99;52433.06;2072259;28;35726;-79
2023/03/09 00:10:15;;;;;;;23.50;14.75;;;;;;;-146.25;99.32;52443.22;2073407;28;20045;-78
2023/03/09 00:11:17;;;;;;;25.15;14.85;;;;;;;-146.25;99.44;52443.22;2072289;28;26770;-79
2023/03/09 00:12:19;;;;;;;23.65;15.68;;;;;;;-146.25;99.56;52424.97;2072630;28;27475;-79
2023/03/09 00:13:22;;;;;;;24.40;15.15;;;;;;;-146.25;99.71;52449.31;2072234;28;32823;-78
2023/03/09 00:14:24;;;;;;;23.95;15.18;;;;;;;-146.25;99.65;52457.41;2072056;28;35794;-79
2023/03/09 00:15:26;;;;;;;24.67;15.50;;;;;;;-146.25;99.86;52435.09;2071459;28;37386;-78
2023/03/09 00:16:29;;;;;;;23.63;15.13;;;;;;;-146.25;100.00;52459.44;2071592;28;36621;-79
2023/03/09 00:17:31;;;;;;;25.10;16.02;;;;;;;-146.25;100.00;52427.00;2072658;28;26084;-79
2023/03/09 00:18:33;;;;;;;25.17;15.55;;;;;;;-146.25;100.00;52461.47;2072140;28;29920;-79
2023/03/09 00:19:37;;;;;;;26.60;15.80;;;;;;;-146.25;100.00;52461.47;2072852;28;20049;-79
2023/03/09 00:20:38;;;;;;;24.25;16.23;;;;;;;-146.25;100.00;52424.97;2071929;28;38701;-78
2023/03/09 00:21:48;;;;;;;25.17;15.75;;;;;;;-146.25;100.00;52427.00;2072553;28;20042;-78
2023/03/09 00:22:52;;;;;;;27.10;16.55;;;;;;;-146.25;100.00;52441.19;2072568;28;32026;-79
2023/03/09 00:23:53;;;;;;;25.20;16.00;;;;;;;-146.25;100.00;52412.81;2071647;28;34876;-79
2023/03/09 00:24:56;;;;;;;25.30;15.73;;;;;;;-146.25;100.00;52451.31;2072350;28;20047;-78
2023/03/09 00:26:06;;;;;;;25.30;15.98;;;;;;;-146.25;100.00;52443.22;2072296;28;36313;-79
2023/03/09 00:27:08;;;;;;;25.55;15.60;;;;;;;-146.25;100.00;52437.13;2072099;28;20805;-79
2023/03/09 00:28:10;;;;;;;25.52;15.32;;;;;;;-146.25;100.00;52441.19;2071916;28;26397;-79
2023/03/09 00:29:15;;;;;;;24.58;15.90;;;;;;;-146.25;100.00;52433.06;2063805;28;20038;-79
2023/03/09 00:30:19;;;;;;;27.73;16.17;;;;;;;-146.25;100.00;52427.00;2063890;28;24645;-79
2023/03/09 00:31:21;;;;;;;24.55;16.00;;;;;;;-146.25;100.00;52435.09;2072367;28;24803;-78
2023/03/09 00:32:22;;;;;;;26.70;16.90;;;;;;;-146.25;100.00;52437.13;2072106;28;28602;-78
2023/03/09 00:33:27;;;;;;;24.73;15.35;;;;;;;-146.25;100.00;52420.91;2072995;28;21559;-78
2023/03/09 00:34:29;;;;;;;27.00;15.65;;;;;;;-146.25;100.00;52459.44;2072496;28;27974;-79
2023/03/09 00:35:35;;;;;;;26.35;16.25;;;;;;;-146.25;100.00;52467.56;2071650;28;20026;-79
2023/03/09 00:36:37;;;;;;;25.17;15.95;;;;;;;-146.25;100.00;52424.97;2063952;28;20950;-79
2023/03/09 00:37:41;;;;;;;24.27;16.25;;;;;;;-146.25;100.00;52457.41;2063925;28;25941;-80
2023/03/09 00:38:43;;;;;;;25.58;16.45;;;;;;;-146.25;100.00;52412.81;2072020;28;25782;-79
2023/03/09 00:39:45;;;;;;;24.30;15.88;;;;;;;-146.25;100.00;52469.56;2072665;28;22430;-79
2023/03/09 00:40:46;;;;;;;23.83;15.30;;;;;;;-146.25;100.00;52451.31;2072055;28;33531;-79
2023/03/09 00:41:48;;;;;;;25.17;16.05;;;;;;;-146.25;100.00;52451.31;2072051;28;24583;-80
2023/03/09 00:42:51;;;;;;;26.77;15.25;;;;;;;-146.25;100.00;52424.97;2072705;28;20038;-79
2023/03/09 00:43:53;;;;;;;23.48;14.45;;;;;;;-146.25;100.00;52418.88;2063765;28;20047;-79
2023/03/09 00:44:55;;;;;;;24.75;15.60;;;;;;;-146.25;100.00;52441.19;2063816;28;25327;-79
2023/03/09 00:45:57;;;;;;;23.27;15.18;;;;;;;-146.25;100.00;52441.19;2071624;28;20081;-78
2023/03/09 00:46:59;;;;;;;26.17;16.05;;;;;;;-146.25;100.00;52469.56;2063949;28;20987;-79
2023/03/09 00:48:00;;;;;;;26.42;16.08;;;;;;;-146.25;100.00;52437.13;2064052;28;20944;-79
2023/03/09 00:49:05;;;;;;;23.58;14.98;;;;;;;-146.25;100.00;52457.41;2072540;28;20116;-79
2023/03/09 00:50:09;;;;;;;22.98;14.93;;;;;;;-146.25;100.00;52455.38;2071928;28;29461;-79
2023/03/09 00:51:11;;;;;;;23.33;14.70;;;;;;;-146.25;100.00;52431.06;2063630;28;20942;-79
2023/03/09 00:52:14;;;;;;;24.92;15.23;;;;;;;-146.25;100.00;52414.84;2064038;28;20045;-79
2023/03/09 00:53:17;;;;;;;24.65;15.70;;;;;;;-146.25;100.00;52382.38;2063905;28;20093;-79
2023/03/09 00:54:19;;;;;;;21.60;15.00;;;;;;;-146.25;100.00;52453.34;2064025;28;20780;-80
2023/03/09 00:55:21;;;;;;;23.63;15.20;;;;;;;-146.25;100.00;52433.06;2064170;28;20161;-79
2023/03/09 00:56:26;;;;;;;23.60;14.30;;;;;;;-146.25;100.00;52465.53;2063572;28;20112;-79
2023/03/09 00:57:29;;;;;;;21.33;13.52;;;;;;;-146.25;100.00;52451.31;2063599;28;25082;-78
2023/03/09 00:58:32;;;;;;;21.40;13.80;;;;;;;-146.25;99.90;52437.13;2063973;28;20789;-77
2023/03/09 00:59:33;;;;;;;24.52;13.63;;;;;;;-146.25;99.80;52453.34;2055944;28;20090;-79
2023/03/09 01:00:37;;;;;;;20.27;13.57;;;;;;;-146.25;99.62;52455.38;2055928;28;20043;-77
2023/03/09 01:01:40;;;;;;;21.65;13.57;;;;;;;-146.25;99.42;52451.31;2063998;28;20050;-79
2023/03/09 01:02:42;;;;;;;22.02;13.63;;;;;;;-146.25;99.54;52433.06;2063241;28;30922;-79
2023/03/09 01:03:45;;;;;;;23.17;14.10;;;;;;;-146.25;99.66;52477.69;2064235;28;28908;-79
2023/03/09 01:04:47;;;;;;;20.35;12.88;;;;;;;-146.25;99.68;52453.34;2062826;28;22051;-79
2023/03/09 01:05:52;;;;;;;19.83;12.35;;;;;;;-146.25;99.67;52447.28;2063877;28;20081;-79
2023/03/09 01:06:54;;;;;;;18.50;13.18;;;;;;;-146.25;99.65;52445.25;2064183;28;20925;-78
2023/03/09 01:07:56;;;;;;;19.40;12.98;;;;;;;-146.25;99.51;52445.25;2063820;28;20043;-77
2023/03/09 01:08:58;;;;;;;20.05;12.43;;;;;;;-146.25;99.78;52477.69;2055055;28;20158;-80
2023/03/09 01:10:00;;;;;;;19.98;13.63;;;;;;;-146.25;100.00;52471.59;2055897;28;20035;-80
2023/03/09 01:11:10;;;;;;;20.85;12.98;;;;;;;-146.25;100.00;52433.06;2063872;28;20926;-80
2023/03/09 01:12:12;;;;;;;21.13;14.02;;;;;;;-146.25;100.00;52449.31;2062977;28;24964;-79
2023/03/09 01:13:14;;;;;;;19.13;12.45;;;;;;;-146.25;100.00;52447.28;2063245;28;20039;-80
2023/03/09 01:14:16;;;;;;;19.50;13.13;;;;;;;-146.25;100.00;52429.03;2063508;28;20935;-79
2023/03/09 01:15:18;;;;;;;21.30;13.52;;;;;;;-146.25;100.00;52451.31;2063545;28;20194;-79
2023/03/09 01:16:21;;;;;;;21.50;13.75;;;;;;;-146.25;100.00;52427.00;2064589;28;20034;-79
2023/03/09 01:17:23;;;;;;;19.83;13.00;;;;;;;-146.25;100.00;52479.72;2063685;28;20087;-79
2023/03/09 01:18:28;;;;;;;23.13;13.75;;;;;;;-146.25;100.00;52437.13;2063772;28;22814;-79
2023/03/09 01:19:30;;;;;;;20.10;13.40;;;;;;;-146.25;100.00;52418.88;2064510;28;20448;-79
2023/03/09 01:20:34;;;;;;;20.75;12.60;;;;;;;-146.25;100.00;52414.84;2055147;28;20127;-79
2023/03/09 01:21:36;;;;;;;22.75;13.73;;;;;;;-146.25;100.00;52424.97;2056010;28;20039;-79
2023/03/09 01:22:38;;;;;;;22.65;13.77;;;;;;;-146.25;100.00;52463.50;2063091;28;20154;-79
2023/03/09 01:23:43;;;;;;;23.00;14.70;;;;;;;-146.25;100.00;52437.13;2055874;28;20755;-79
2023/03/09 01:24:45;;;;;;;21.42;14.07;;;;;;;-146.25;100.00;52429.03;2063539;28;23279;-79
2023/03/09 01:25:47;;;;;;;22.73;14.10;;;;;;;-146.25;100.00;52475.66;2063369;28;21006;-80
2023/03/09 01:26:49;;;;;;;22.35;13.75;;;;;;;-146.25;100.00;52449.31;2063552;28;21311;-79
2023/03/09 01:27:51;;;;;;;23.73;14.60;;;;;;;-146.25;100.00;52441.19;2071445;28;20036;-79
2023/03/09 01:28:53;;;;;;;24.33;14.88;;;;;;;-146.25;100.00;52469.56;2071648;28;20229;-80
2023/03/09 01:29:55;;;;;;;25.30;15.07;;;;;;;-146.25;100.00;52469.56;2072333;28;20485;-79
2023/03/09 01:30:56;;;;;;;24.27;14.73;;;;;;;-146.25;100.00;52410.78;2063426;28;20050;-79
2023/03/09 01:31:58;;;;;;;22.88;14.55;;;;;;;-146.25;100.00;52424.97;2063601;28;20051;-79
2023/03/09 01:33:00;;;;;;;24.15;14.18;;;;;;;-146.25;100.00;52465.53;2063097;28;33532;-78
2023/03/09 01:34:04;;;;;;;26.33;14.88;;;;;;;-146.25;100.00;52418.88;2063649;28;20050;-80
2023/03/09 01:35:06;;;;;;;24.33;15.65;;;;;;;-146.25;100.00;52441.19;2072384;28;20946;-79
2023/03/09 01:36:16;;;;;;;25.38;15.27;;;;;;;-146.25;100.00;52441.19;2070967;28;23918;-80
2023/03/09 01:37:19;;;;;;;26.33;15.23;;;;;;;-146.25;100.00;52437.13;2063535;28;21735;-79
2023/03/09 01:38:22;;;;;;;24.92;15.13;;;;;;;-146.25;100.00;52461.47;2064279;28;23801;-79
2023/03/09 01:39:24;;;;;;;23.42;14.95;;;;;;;-146.25;100.00;52449.31;2072163;28;23966;-79
2023/03/09 01:40:29;;;;;;;23.63;15.13;;;;;;;-146.25;100.00;52424.97;2072655;28;20835;-79
2023/03/09 01:41:31;;;;;;;22.95;14.48;;;;;;;-146.25;100.00;52455.38;2062980;28;27880;-79
2023/03/09 01:42:34;;;;;;;24.30;14.60;;;;;;;-146.25;100.00;52483.78;2062952;28;24553;-79
2023/03/09 01:43:42;;;;;;;27.60;15.68;;;;;;;-146.25;100.00;52465.53;2071986;28;20049;-79
2023/03/09 01:44:43;;;;;;;23.75;15.20;;;;;;;-146.25;100.00;52471.59;2071780;28;31329;-80
2023/03/09 01:45:48;;;;;;;24.13;14.65;;;;;;;-146.25;100.00;52449.31;2072497;28;20113;-80
2023/03/09 01:46:56;;;;;;;23.13;14.57;;;;;;;-146.25;100.00;52469.56;2071010;28;20034;-80
2023/03/09 01:47:59;;;;;;;23.63;15.05;;;;;;;-146.25;100.00;52441.19;2063605;28;20074;-80
2023/03/09 01:49:28;;;;;;;25.67;15.48;;;;;;;-146.25;100.00;52512.16;2063617;28;20898;-80
2023/03/09 01:50:35;;;;;;;23.23;14.63;;;;;;;-146.25;100.00;52410.78;2063188;28;20050;-80
2023/03/09 01:51:48;;;;;;;26.65;15.38;;;;;;;-146.25;100.00;52461.47;2059763;28;20185;-79
2023/03/09 01:52:54;;;;;;;26.40;15.02;;;;;;;-146.25;100.00;52433.06;2064620;28;20027;-80
2023/03/09 01:53:59;;;;;;;25.05;14.27;;;;;;;-146.25;100.00;52431.06;2071786;28;20113;-80
2023/03/09 01:55:04;;;;;;;22.90;14.57;;;;;;;-146.25;100.00;52451.31;2063600;28;20936;-80
2023/03/09 01:56:06;;;;;;;25.77;15.85;;;;;;;-146.25;100.00;52473.63;2055597;28;20035;-79
2023/03/09 01:57:29;;;;;;;25.27;15.38;;;;;;;-146.25;100.00;52465.53;2063388;28;20113;-79
2023/03/09 01:58:32;;;;;;;26.25;15.10;;;;;;;-146.25;100.00;52485.81;2063439;28;20158;-79
2023/03/09 01:59:34;;;;;;;24.27;14.45;;;;;;;-146.25;100.00;52461.47;2063205;28;22870;-79
2023/03/09 02:00:42;;;;;;;23.65;14.07;;;;;;;-146.25;100.00;52437.13;2063352;28;20043;-79
2023/03/09 02:01:45;;;;;;;21.83;13.93;;;;;;;-146.25;100.00;52402.66;2063218;28;20911;-79
2023/03/09 02:02:52;;;;;;;24.77;14.85;;;;;;;-146.25;100.00;52447.28;2055037;28;20253;-79
2023/03/09 02:04:08;;;;;;;23.42;14.10;;;;;;;-146.25;100.00;52433.06;2064344;28;25129;-79
2023/03/09 02:05:19;;;;;;;24.25;15.05;;;;;;;-146.25;100.00;52467.56;2063156;28;24451;-79
2023/03/09 02:06:21;;;;;;;25.20;15.02;;;;;;;-146.25;100.00;52481.75;2064636;28;20086;-78
2023/03/09 02:07:28;;;;;;;24.80;14.65;;;;;;;-146.25;100.00;52427.00;2071362;28;20884;-79
2023/03/09 02:08:31;;;;;;;24.63;15.07;;;;;;;-146.25;100.00;52427.00;2063304;28;20038;-79
2023/03/09 02:09:51;;;;;;;24.95;14.60;;;;;;;-146.25;100.00;52459.44;2063909;28;20046;-79
2023/03/09 02:11:03;;;;;;;25.48;14.30;;;;;;;-146.25;100.00;52433.06;2063323;28;20042;-80
2023/03/09 02:12:13;;;;;;;25.77;15.50;;;;;;;-146.25;100.00;52451.31;2097013;22;20038;-80
2023/03/09 02:13:20;;;;;;;26.30;14.45;;;;;;;-146.25;100.00;52487.81;2115764;28;20143;-80
2023/03/09 02:14:24;;;;;;;21.85;13.23;;;;;;;-146.25;100.00;52457.41;2096104;28;20041;-81
2023/03/09 02:15:26;;;;;;;25.20;14.68;;;;;;;-146.25;100.00;52473.63;2097128;28;27418;-81
2023/03/09 02:16:28;;;;;;;21.02;14.02;;;;;;;-146.25;100.00;52493.91;2104212;28;20040;-81
2023/03/09 02:17:30;;;;;;;20.40;12.80;;;;;;;-146.25;100.00;52431.06;2104503;28;27140;-80
2023/03/09 02:18:33;;;;;;;21.02;13.15;;;;;;;-146.25;100.00;52461.47;2113050;28;20120;-80
2023/03/09 02:20:04;;;;;;;22.88;13.48;;;;;;;-146.25;100.00;52473.63;2104505;28;20138;-80
2023/03/09 02:21:35;;;;;;;23.48;13.65;;;;;;;-146.25;100.00;52429.03;2097486;28;20041;-78
2023/03/09 02:22:39;;;;;;;22.45;13.50;;;;;;;-146.25;100.00;52453.34;2087563;28;20131;-78
2023/03/09 02:24:33;;;;;;;20.35;12.00;;;;;;;-146.25;100.00;52445.25;2088047;28;20041;-81
2023/03/09 02:25:46;;;;;;;21.92;12.93;;;;;;;-146.25;100.00;52477.69;2087645;28;20049;-81
2023/03/09 02:26:57;;;;;;;20.92;12.23;;;;;;;-146.25;100.00;52445.25;2072716;28;20053;-81
2023/03/09 02:27:59;;;;;;;21.50;12.32;;;;;;;-146.25;100.00;52465.53;2080847;28;20041;-81
2023/03/09 02:29:03;;;;;;;22.15;12.02;;;;;;;-146.25;100.00;52461.47;2079883;28;20173;-80
2023/03/09 02:30:08;;;;;;;22.88;13.02;;;;;;;-146.25;100.00;52433.06;2079465;28;20058;-81
2023/03/09 02:31:13;;;;;;;20.05;12.05;;;;;;;-146.25;100.00;52447.28;2064073;28;30636;-81
2023/03/09 02:32:16;;;;;;;20.35;12.00;;;;;;;-146.25;100.00;52433.06;2080839;28;29797;-81
2023/03/09 02:33:28;;;;;;;19.52;12.10;;;;;;;-146.25;100.00;52451.31;2096000;28;20037;-81
2023/03/09 02:34:32;;;;;;;23.30;12.80;;;;;;;-146.25;100.00;52435.09;2095769;28;20033;-81
2023/03/09 02:35:34;;;;;;;23.38;12.48;;;;;;;-146.25;100.00;52408.75;2096004;28;20037;-80
2023/03/09 02:36:37;;;;;;;21.15;11.93;;;;;;;-146.25;100.00;52424.97;2087514;28;20041;-81
2023/03/09 02:37:40;;;;;;;22.67;12.63;;;;;;;-146.25;100.00;52453.34;2087934;28;20042;-80
2023/03/09 02:39:05;;;;;;;23.67;12.77;;;;;;;-146.25;100.00;52408.75;2096158;28;20037;-81
2023/03/09 02:40:10;;;;;;;22.10;12.27;;;;;;;-146.25;100.00;52441.19;2087386;28;20420;-80
2023/03/09 02:41:13;;;;;;;21.20;12.55;;;;;;;-146.25;100.00;52408.75;2081474;28;20045;-80
2023/03/09 02:42:17;;;;;;;21.15;11.98;;;;;;;-146.25;100.00;52449.31;2087786;28;20188;-80
2023/03/09 02:43:27;;;;;;;21.85;11.55;;;;;;;-146.25;100.00;52485.81;2090249;28;20654;-80
2023/03/09 02:44:34;;;;;;;19.45;12.13;;;;;;;-146.25;100.00;52459.44;2080817;28;20165;-80
2023/03/09 02:45:39;;;;;;;18.73;11.63;;;;;;;-146.25;100.00;52493.91;2080107;28;20026;-81
2023/03/09 02:46:41;;;;;;;19.67;11.55;;;;;;;-146.25;100.00;52437.13;2087608;28;20041;-80
2023/03/09 02:47:42;;;;;;;20.98;12.30;;;;;;;-146.25;100.00;52445.25;2088148;28;20048;-80
2023/03/09 02:48:45;;;;;;;18.92;11.82;;;;;;;-146.25;100.00;52465.53;2087467;28;20168;-80
2023/03/09 02:49:46;;;;;;;22.65;11.55;;;;;;;-146.25;100.00;52435.09;2087198;28;33891;-80
2023/03/09 02:50:49;;;;;;;21.45;12.02;;;;;;;-146.25;100.00;52465.53;2099896;28;20044;-80
2023/03/09 02:51:51;;;;;;;22.20;11.77;;;;;;;-146.25;100.00;52469.56;2095575;28;26330;-81
2023/03/09 02:52:53;;;;;;;20.25;11.50;;;;;;;-146.25;100.00;52443.22;2087674;28;20815;-81
2023/03/09 02:53:55;;;;;;;22.50;12.98;;;;;;;-146.25;100.00;52455.38;2079502;28;20753;-81
2023/03/09 02:54:57;;;;;;;19.80;11.95;;;;;;;-146.25;100.00;52469.56;2079298;28;20053;-80
2023/03/09 02:55:59;;;;;;;22.65;12.05;;;;;;;-146.25;100.00;52451.31;2088100;28;20216;-81
2023/03/09 02:57:02;;;;;;;20.42;12.52;;;;;;;-146.25;100.00;52459.44;2087614;28;20053;-80
2023/03/09 02:58:03;;;;;;;23.63;13.00;;;;;;;-146.25;100.00;52477.69;2087880;28;20037;-81
2023/03/09 02:59:06;;;;;;;20.42;13.02;;;;;;;-146.25;100.00;52445.25;2096077;28;20894;-80
2023/03/09 03:00:11;;;;;;;20.25;11.98;;;;;;;-146.25;100.00;52457.41;2087060;28;20054;-81
2023/03/09 03:01:13;;;;;;;22.10;12.90;;;;;;;-146.25;100.00;52435.09;2095990;28;20051;-80
2023/03/09 03:02:15;;;;;;;21.98;12.23;;;;;;;-146.25;100.00;52429.03;2104626;28;20882;-79
2023/03/09 03:03:19;;;;;;;20.15;12.10;;;;;;;-146.25;100.00;52433.06;2113087;28;32427;-80
2023/03/09 03:04:22;;;;;;;20.50;12.52;;;;;;;-146.25;100.00;52412.81;2104496;28;20037;-80
2023/03/09 03:05:25;;;;;;;21.00;12.50;;;;;;;-146.25;100.00;52487.81;2096163;28;20053;-80
2023/03/09 03:06:27;;;;;;;21.40;12.93;;;;;;;-146.25;100.00;52455.38;2103523;28;28700;-80
2023/03/09 03:07:29;;;;;;;19.35;12.68;;;;;;;-146.25;100.00;52449.31;2113195;28;20888;-80
2023/03/09 03:08:32;;;;;;;22.02;12.65;;;;;;;-146.25;100.00;52429.03;2113345;28;22814;-80
2023/03/09 03:09:40;;;;;;;22.65;12.40;;;;;;;-146.25;100.00;52445.25;2104341;28;20099;-80
2023/03/09 03:10:44;;;;;;;19.40;11.93;;;;;;;-146.25;100.00;52443.22;2096397;28;20033;-81
2023/03/09 03:11:46;;;;;;;20.25;12.70;;;;;;;-146.25;100.00;52473.63;2104427;28;21302;-80
2023/03/09 03:12:47;;;;;;;22.67;13.30;;;;;;;-146.25;100.00;52473.63;2103183;28;27751;-81
2023/03/09 03:13:49;;;;;;;23.20;13.68;;;;;;;-146.25;100.00;52457.41;2104122;28;20085;-81
2023/03/09 03:14:53;;;;;;;23.13;13.07;;;;;;;-146.25;100.00;52465.53;2104461;28;20037;-81
2023/03/09 03:16:02;;;;;;;21.83;13.23;;;;;;;-146.25;100.00;52502.03;2096142;28;20145;-79
2023/03/09 03:17:03;;;;;;;24.42;14.07;;;;;;;-146.25;100.00;52433.06;2096224;28;20045;-78
2023/03/09 03:18:05;;;;;;;24.65;14.15;;;;;;;-146.25;100.00;52439.16;2104114;28;20078;-81
2023/03/09 03:19:08;;;;;;;24.13;14.15;;;;;;;-146.25;100.00;52445.25;2103982;28;20984;-79
2023/03/09 03:20:14;;;;;;;25.38;14.60;;;;;;;-146.25;100.00;52465.53;2095940;28;20868;-79
2023/03/09 03:21:20;;;;;;;24.58;13.90;;;;;;;-146.25;100.00;52443.22;2079759;28;20969;-81
2023/03/09 03:22:23;;;;;;;26.55;14.48;;;;;;;-146.25;100.00;52465.53;2087540;28;20899;-79
2023/03/09 03:23:27;;;;;;;26.95;14.43;;;;;;;-146.25;100.00;52461.47;2087626;28;20037;-81
2023/03/09 03:24:34;;;;;;;23.27;13.82;;;;;;;-146.25;100.00;52477.69;2088089;28;20096;-81
2023/03/09 03:25:36;;;;;;;24.90;14.65;;;;;;;-146.25;100.00;52433.06;2095832;28;20158;-81
2023/03/09 03:26:39;;;;;;;22.30;13.65;;;;;;;-146.25;100.00;52471.59;2087275;28;20042;-79
2023/03/09 03:27:45;;;;;;;24.08;14.05;;;;;;;-146.25;100.00;52441.19;2087720;28;20139;-79
2023/03/09 03:28:49;;;;;;;23.90;14.30;;;;;;;-146.25;100.00;52473.63;2088835;28;20041;-79
2023/03/09 03:30:01;;;;;;;25.05;14.65;;;;;;;-146.25;100.00;52469.56;2097099;28;20954;-81
2023/03/09 03:31:04;;;;;;;22.80;13.93;;;;;;;-146.25;100.00;52424.97;2097434;28;20040;-79
2023/03/09 03:32:07;;;;;;;24.10;14.57;;;;;;;-146.25;100.00;52447.28;2088909;28;20046;-79
2023/03/09 03:33:08;;;;;;;23.58;13.70;;;;;;;-146.25;100.00;52481.75;2088778;28;31154;-80
2023/03/09 03:34:11;;;;;;;24.00;14.02;;;;;;;-146.25;100.00;52447.28;2097232;28;20885;-79
2023/03/09 03:35:17;;;;;;;24.17;13.45;;;;;;;-146.25;100.00;52424.97;2088689;28;20159;-79
2023/03/09 03:36:19;;;;;;;25.45;14.40;;;;;;;-146.25;100.00;52453.34;2088981;28;20045;-81
2023/03/09 03:37:23;;;;;;;24.52;14.30;;;;;;;-146.25;100.00;52477.69;2088935;28;20156;-78
2023/03/09 03:38:25;;;;;;;25.30;14.10;;;;;;;-146.25;100.00;52457.41;2088723;28;20045;-81
2023/03/09 03:39:27;;;;;;;24.70;13.88;;;;;;;-146.25;100.00;52441.19;2088874;28;20044;-80
2023/03/09 03:40:33;;;;;;;23.45;13.75;;;;;;;-146.25;100.00;52453.34;2096940;28;20202;-81
2023/03/09 03:41:39;;;;;;;20.75;13.13;;;;;;;-146.25;100.00;52459.44;2096602;28;20162;-81
2023/03/09 03:42:43;;;;;;;25.42;13.82;;;;;;;-146.25;100.00;52465.53;2097147;28;20864;-81
2023/03/09 03:43:50;;;;;;;21.15;13.00;;;;;;;-146.25;100.00;52463.50;2088680;28;20124;-79
2023/03/09 03:44:52;;;;;;;23.52;12.82;;;;;;;-146.25;100.00;52477.69;2081246;28;20882;-79
2023/03/09 03:45:57;;;;;;;23.65;12.68;;;;;;;-146.25;100.00;52469.56;2088511;28;22090;-80
2023/03/09 03:46:59;;;;;;;21.55;12.65;;;;;;;-146.25;100.00;52453.34;2097182;28;20048;-80
2023/03/09 03:48:01;;;;;;;22.63;13.13;;;;;;;-146.25;100.00;52493.91;2088945;28;20054;-80
2023/03/09 03:49:06;;;;;;;20.13;12.48;;;;;;;-146.25;100.00;52451.31;2072773;28;20244;-80
2023/03/09 03:50:11;;;;;;;21.00;12.80;;;;;;;-146.25;100.00;52481.75;2073818;28;20185;-80
2023/03/09 03:51:21;;;;;;;19.63;11.93;;;;;;;-146.25;100.00;52439.16;2081354;28;20824;-80
2023/03/09 03:52:25;;;;;;;20.10;11.70;;;;;;;-146.25;100.00;52424.97;2082626;28;20045;-80
2023/03/09 03:53:27;;;;;;;22.55;12.23;;;;;;;-146.25;100.00;52479.72;2088187;28;20878;-80
2023/03/09 03:54:30;;;;;;;25.08;13.10;;;;;;;-146.25;100.00;52463.50;2096946;28;20056;-80
2023/03/09 03:55:33;;;;;;;19.92;12.23;;;;;;;-146.25;100.00;52483.78;2096666;28;20037;-80
2023/03/09 03:56:39;;;;;;;22.77;12.90;;;;;;;-146.25;100.00;52461.47;2096822;28;20045;-80
2023/03/09 03:57:46;;;;;;;22.33;12.02;;;;;;;-146.25;100.00;52453.34;2098121;28;20049;-80
2023/03/09 03:58:48;;;;;;;21.42;12.70;;;;;;;-146.25;100.00;52459.44;2105007;28;22969;-81
2023/03/09 03:59:51;;;;;;;19.92;12.07;;;;;;;-146.25;100.00;52461.47;2105417;28;20041;-80
2023/03/09 04:00:53;;;;;;;21.33;11.70;;;;;;;-146.25;100.00;52502.03;2097170;28;20098;-80
2023/03/09 04:01:59;;;;;;;20.33;13.00;;;;;;;-146.25;100.00;52439.16;2088952;28;20050;-79
2023/03/09 04:03:03;;;;;;;22.38;11.93;;;;;;;-146.25;100.00;52473.63;2097283;28;20153;-80
2023/03/09 04:04:13;;;;;;;22.10;13.05;;;;;;;-146.25;100.00;52433.06;2105322;28;20149;-80
2023/03/09 04:05:21;;;;;;;20.95;12.77;;;;;;;-146.25;100.00;52461.47;2097098;28;20045;-80
2023/03/09 04:06:23;;;;;;;22.95;12.88;;;;;;;-146.25;100.00;52457.41;2088300;28;20956;-81
2023/03/09 04:07:26;;;;;;;21.75;12.93;;;;;;;-146.25;100.00;52437.13;2080574;28;20046;-81
2023/03/09 04:08:28;;;;;;;21.13;12.50;;;;;;;-146.25;100.00;52491.88;2089132;28;20930;-79
2023/03/09 04:09:30;;;;;;;22.50;12.75;;;;;;;-146.25;100.00;52439.16;2097062;28;20857;-80
2023/03/09 04:10:33;;;;;;;24.15;12.80;;;;;;;-146.25;100.00;52459.44;2096762;28;20131;-79
2023/03/09 04:11:36;;;;;;;21.83;12.50;;;;;;;-146.25;100.00;52493.91;2096963;28;21047;-80
2023/03/09 04:12:40;;;;;;;24.40;13.55;;;;;;;-146.25;100.00;52467.56;2097101;28;20067;-80
2023/03/09 04:13:46;;;;;;;22.30;13.68;;;;;;;-146.25;100.00;52479.72;2096882;28;20168;-79
2023/03/09 04:14:48;;;;;;;19.98;12.23;;;;;;;-146.25;100.00;52487.81;2097385;28;20136;-79
2023/03/09 04:15:51;;;;;;;23.27;12.77;;;;;;;-146.25;100.00;52437.13;2096906;28;20087;-78
2023/03/09 04:16:53;;;;;;;25.50;14.05;;;;;;;-146.25;100.00;52455.38;2096954;28;20148;-79
2023/03/09 04:18:00;;;;;;;24.90;12.68;;;;;;;-146.25;100.00;52441.19;2097083;28;20044;-78
2023/03/09 04:19:03;;;;;;;21.77;12.52;;;;;;;-146.25;100.00;52477.69;2088309;28;20419;-79
2023/03/09 04:20:06;;;;;;;22.67;13.15;;;;;;;-146.25;100.00;52449.31;2097125;28;20172;-79
2023/03/09 04:21:08;;;;;;;24.70;13.15;;;;;;;-146.25;100.00;52427.00;2104839;28;20084;-78
2023/03/09 04:22:10;;;;;;;25.63;13.63;;;;;;;-146.25;100.00;52424.97;2096804;28;20145;-79
2023/03/09 04:23:12;;;;;;;25.30;13.18;;;;;;;-146.25;100.00;52483.78;2088610;28;24287;-78
2023/03/09 04:24:20;;;;;;;21.73;13.65;;;;;;;-146.25;100.00;52477.69;2098006;28;20037;-79
2023/03/09 04:25:22;;;;;;;23.23;13.00;;;;;;;-146.25;100.00;52471.59;2105795;28;20114;-79
2023/03/09 04:26:24;;;;;;;21.77;12.95;;;;;;;-146.25;100.00;52451.31;2096712;28;20045;-79
2023/03/09 04:27:37;;;;;;;24.65;12.88;;;;;;;-146.25;100.00;52465.53;2098197;28;20073;-80
2023/03/09 04:28:54;;;;;;;23.35;13.70;;;;;;;-146.25;100.00;52455.38;2105019;28;20187;-79
2023/03/09 04:29:56;;;;;;;23.77;13.93;;;;;;;-146.25;100.00;52475.66;2104973;28;30356;-80
2023/03/09 04:31:02;;;;;;;22.77;13.52;;;;;;;-146.25;100.00;52463.50;2096918;28;20049;-79
2023/03/09 04:32:08;;;;;;;26.30;13.93;;;;;;;-146.25;100.00;52461.47;2089011;28;20038;-79
2023/03/09 04:33:11;;;;;;;22.30;14.07;;;;;;;-146.25;100.00;52449.31;2096774;28;27961;-79
2023/03/09 04:34:13;;;;;;;26.55;13.98;;;;;;;-146.25;100.00;52481.75;2096731;28;20045;-79
2023/03/09 04:35:17;;;;;;;26.25;14.13;;;;;;;-146.25;100.00;52437.13;2088644;28;20038;-79
2023/03/09 04:36:21;;;;;;;24.98;13.60;;;;;;;-146.25;100.00;52461.47;2088875;28;20050;-79
2023/03/09 04:37:26;;;;;;;23.88;13.98;;;;;;;-146.25;100.00;52477.69;2088331;28;20069;-80
2023/03/09 04:38:29;;;;;;;27.45;15.43;;;;;;;-146.25;100.00;52447.28;2088780;28;20053;-79
2023/03/09 04:39:31;;;;;;;26.92;15.05;;;;;;;-146.25;100.00;52475.66;2087559;28;20042;-79
2023/03/09 04:40:35;;;;;;;28.13;15.90;;;;;;;-146.25;100.00;52412.81;2096190;28;20041;-79
2023/03/09 04:41:37;;;;;;;27.40;16.20;;;;;;;-146.25;100.00;52477.69;2104100;28;20045;-79
2023/03/09 04:42:41;;;;;;;31.85;15.50;;;;;;;-146.25;100.00;52483.78;2097462;28;20078;-79
2023/03/09 04:43:44;;;;;;;27.42;14.55;;;;;;;-146.25;100.00;52453.34;2105152;28;20186;-79
2023/03/09 04:44:45;;;;;;;30.33;15.40;;;;;;;-146.25;100.00;52459.44;2096975;28;20465;-79
2023/03/09 04:45:47;;;;;;;27.73;14.98;;;;;;;-146.25;100.00;52433.06;2097111;28;20898;-80
2023/03/09 04:46:49;;;;;;;30.98;15.15;;;;;;;-146.25;100.00;52437.13;2096664;28;21216;-79